Time;durP1;ratioP1;P1;durP2;ratioP2;P2;SDS_P1;SDS_P2;PMS_P1;PMS_P2;Temp;Humidity;BMP_temperature;BMP_pressure;BME280_temperature;BME280_humidity;BME280_pressure;Samples;Min_cycle;Max_cycle;Signal;HPM_P1;HPM_P2
2023/07/12 00:01:36;;;;;;;1.15;0.20;;;19.10;99.90;;;;;;5006577;28;20144;-81
2023/07/12 00:04:02;;;;;;;0.55;0.20;;;19.00;99.90;;;;;;5016452;28;20104;-83
2023/07/12 00:06:39;;;;;;;0.80;0.20;;;19.10;99.90;;;;;;5021030;28;20026;-82
2023/07/12 00:09:10;;;;;;;0.73;0.20;;;19.10;99.90;;;;;;5015504;28;20057;-79
2023/07/12 00:11:36;;;;;;;0.50;0.10;;;19.10;99.90;;;;;;5018074;28;20132;-80
2023/07/12 00:14:01;;;;;;;0.50;0.20;;;19.00;99.90;;;;;;5009126;28;20094;-80
2023/07/12 00:16:33;;;;;;;0.52;0.20;;;18.80;99.90;;;;;;5020465;28;20029;-79
2023/07/12 00:18:59;;;;;;;0.85;0.20;;;18.90;99.90;;;;;;5026654;28;20441;-80
2023/07/12 00:21:27;;;;;;;0.60;0.20;;;18.90;99.90;;;;;;5015414;28;20518;-79
2023/07/12 00:23:54;;;;;;;1.25;0.20;;;18.90;99.90;;;;;;5008889;28;20133;-80
2023/07/12 00:26:35;;;;;;;0.65;0.20;;;18.90;99.90;;;;;;5007172;28;20022;-82
2023/07/12 00:29:03;;;;;;;0.75;0.20;;;18.80;99.90;;;;;;5016333;28;20033;-79
2023/07/12 00:31:29;;;;;;;1.50;0.20;;;18.90;99.90;;;;;;5006145;28;20043;-79
2023/07/12 00:33:56;;;;;;;0.65;0.10;;;18.90;99.90;;;;;;5015501;28;20552;-81
2023/07/12 00:36:23;;;;;;;0.55;0.20;;;18.90;99.90;;;;;;5004891;28;20037;-82
2023/07/12 00:38:49;;;;;;;1.05;0.20;;;18.80;99.90;;;;;;5023665;28;20630;-82
2023/07/12 00:41:37;;;;;;;0.60;0.20;;;18.80;99.90;;;;;;5009661;28;20029;-81
2023/07/12 00:44:21;;;;;;;0.90;0.20;;;18.80;99.90;;;;;;5017979;28;20394;-82
2023/07/12 00:46:53;;;;;;;1.15;0.20;;;18.60;99.90;;;;;;5017153;28;20068;-82
2023/07/12 00:49:19;;;;;;;0.68;0.20;;;18.60;99.90;;;;;;5004494;28;20473;-82
2023/07/12 00:52:09;;;;;;;1.52;0.22;;;18.70;99.90;;;;;;5009566;28;20516;-79
2023/07/12 00:54:56;;;;;;;1.50;0.30;;;18.60;99.90;;;;;;5004468;28;20037;-82
2023/07/12 00:57:30;;;;;;;2.25;0.30;;;18.40;99.90;;;;;;5021446;28;20394;-81
2023/07/12 01:00:10;;;;;;;1.95;0.40;;;18.40;99.90;;;;;;5015486;28;20112;-82
2023/07/12 01:02:39;;;;;;;2.00;0.38;;;18.30;99.90;;;;;;5022805;28;20045;-82
2023/07/12 01:05:05;;;;;;;1.13;0.30;;;18.30;99.90;;;;;;5018735;28;20378;-82
2023/07/12 01:07:31;;;;;;;2.40;0.40;;;18.30;99.90;;;;;;5020485;28;20097;-82
2023/07/12 01:09:57;;;;;;;1.88;0.35;;;18.20;99.90;;;;;;5015051;28;20026;-82
2023/07/12 01:12:23;;;;;;;1.20;0.40;;;18.20;99.90;;;;;;5006582;28;20382;-81
2023/07/12 01:14:49;;;;;;;5.43;0.40;;;18.20;99.90;;;;;;5017581;28;20034;-82
2023/07/12 01:17:15;;;;;;;3.63;0.50;;;18.10;99.90;;;;;;5022782;28;20104;-82
2023/07/12 01:19:40;;;;;;;2.45;0.40;;;18.00;99.90;;;;;;5021547;28;20030;-82
2023/07/12 01:22:07;;;;;;;3.47;0.43;;;17.90;99.90;;;;;;5007458;28;20030;-83
2023/07/12 01:24:33;;;;;;;3.40;0.40;;;17.80;99.90;;;;;;5025877;28;20026;-83
2023/07/12 01:27:15;;;;;;;2.60;0.50;;;17.70;99.90;;;;;;5005674;28;20028;-82
2023/07/12 01:29:40;;;;;;;1.98;0.38;;;17.70;99.90;;;;;;5017157;28;20030;-83
2023/07/12 01:32:10;;;;;;;2.67;0.40;;;17.60;99.90;;;;;;5006572;28;20021;-78
2023/07/12 01:34:35;;;;;;;2.42;0.40;;;17.50;99.90;;;;;;5014892;28;20300;-79
2023/07/12 01:37:04;;;;;;;2.95;0.40;;;17.50;99.90;;;;;;5003307;28;20076;-81
2023/07/12 01:39:33;;;;;;;3.65;0.50;;;17.50;99.90;;;;;;5022173;28;20056;-80
2023/07/12 01:41:59;;;;;;;2.20;0.75;;;17.40;99.90;;;;;;4999471;28;20032;-78
2023/07/12 01:44:25;;;;;;;3.28;0.40;;;17.40;99.90;;;;;;5017984;28;20385;-79
2023/07/12 01:46:51;;;;;;;1.83;0.40;;;17.40;99.90;;;;;;5024087;28;20026;-79
2023/07/12 01:49:17;;;;;;;3.08;0.40;;;17.30;99.90;;;;;;5025860;28;20026;-79
2023/07/12 01:51:43;;;;;;;2.65;0.43;;;17.30;99.90;;;;;;5024695;28;20025;-79
2023/07/12 01:54:09;;;;;;;4.78;0.70;;;17.20;99.90;;;;;;5009234;28;20041;-80
2023/07/12 01:56:34;;;;;;;4.60;0.60;;;17.20;99.90;;;;;;5017676;28;20029;-80
2023/07/12 01:59:00;;;;;;;4.28;0.50;;;17.20;99.90;;;;;;5020093;28;20052;-79
2023/07/12 02:01:27;;;;;;;2.72;0.50;;;17.30;99.90;;;;;;5024437;28;20049;-79
2023/07/12 02:03:52;;;;;;;3.00;0.43;;;17.30;99.90;;;;;;5001006;28;20510;-80
2023/07/12 02:06:18;;;;;;;6.07;0.55;;;17.20;99.90;;;;;;5000756;28;20121;-80
2023/07/12 02:08:44;;;;;;;4.38;0.60;;;17.30;99.90;;;;;;5002559;28;20026;-78
2023/07/12 02:11:12;;;;;;;4.45;0.57;;;17.30;99.90;;;;;;5007014;28;20604;-80
2023/07/12 02:13:38;;;;;;;5.13;0.50;;;17.30;99.90;;;;;;5007714;28;20132;-80
2023/07/12 02:16:04;;;;;;;4.60;0.40;;;17.30;99.90;;;;;;5003493;28;20120;-79
2023/07/12 02:18:33;;;;;;;3.22;0.60;;;17.30;99.90;;;;;;5024506;28;20070;-77
2023/07/12 02:20:59;;;;;;;2.70;0.40;;;17.30;99.90;;;;;;5013803;28;20092;-81
2023/07/12 02:23:24;;;;;;;3.30;0.60;;;17.40;99.90;;;;;;5006529;28;20041;-81
2023/07/12 02:25:50;;;;;;;4.95;0.40;;;17.30;99.90;;;;;;5025604;28;20494;-79
2023/07/12 02:28:16;;;;;;;3.33;0.40;;;17.30;99.90;;;;;;5027867;28;20414;-81
2023/07/12 02:30:43;;;;;;;5.05;0.50;;;17.30;99.90;;;;;;5011666;28;20065;-82
2023/07/12 02:33:09;;;;;;;4.35;0.60;;;17.20;99.90;;;;;;5025114;28;20045;-81
2023/07/12 02:35:38;;;;;;;6.38;0.60;;;17.20;99.90;;;;;;5010726;28;20029;-81
2023/07/12 02:38:04;;;;;;;3.80;0.70;;;17.20;99.90;;;;;;5011173;28;20035;-81
2023/07/12 02:40:30;;;;;;;3.13;0.47;;;17.10;99.90;;;;;;5029009;28;20108;-81
2023/07/12 02:42:56;;;;;;;3.70;0.50;;;17.10;99.90;;;;;;5010501;28;20509;-81
2023/07/12 02:45:22;;;;;;;2.05;0.30;;;17.10;99.90;;;;;;5018669;28;20037;-81
2023/07/12 02:47:48;;;;;;;3.28;0.28;;;17.20;99.90;;;;;;5021332;28;20026;-82
2023/07/12 02:50:14;;;;;;;3.28;0.40;;;17.20;99.90;;;;;;5024660;28;20029;-82
2023/07/12 02:52:39;;;;;;;4.85;0.40;;;16.90;99.90;;;;;;5020764;28;20579;-82
2023/07/12 02:55:06;;;;;;;2.03;0.38;;;16.80;99.90;;;;;;5023934;28;20045;-80
2023/07/12 02:57:32;;;;;;;1.52;0.30;;;16.90;99.90;;;;;;5009932;28;20033;-81
2023/07/12 02:59:57;;;;;;;1.73;0.22;;;16.90;99.90;;;;;;5009516;28;20033;-80
2023/07/12 03:02:23;;;;;;;4.45;0.30;;;16.90;99.90;;;;;;5006253;28;20418;-80
2023/07/12 03:04:50;;;;;;;1.10;0.30;;;16.80;99.90;;;;;;5022542;28;20033;-79
2023/07/12 03:07:16;;;;;;;1.38;0.30;;;16.80;99.90;;;;;;5023580;28;20039;-79
2023/07/12 03:09:41;;;;;;;0.88;0.28;;;16.90;99.90;;;;;;5017701;28;20148;-80
2023/07/12 03:12:07;;;;;;;2.08;0.30;;;17.00;99.90;;;;;;5026085;28;20041;-79
2023/07/12 03:14:33;;;;;;;1.52;0.20;;;17.00;99.90;;;;;;5022280;28;20033;-79
2023/07/12 03:16:59;;;;;;;0.88;0.30;;;17.00;99.90;;;;;;5025679;28;20539;-79
2023/07/12 03:19:25;;;;;;;1.38;0.20;;;17.00;99.90;;;;;;5017748;28;20053;-79
2023/07/12 03:21:50;;;;;;;1.63;0.25;;;16.90;99.90;;;;;;5024534;28;20434;-80
2023/07/12 03:24:16;;;;;;;0.93;0.20;;;17.00;99.90;;;;;;5020018;28;20466;-79
2023/07/12 03:26:42;;;;;;;1.50;0.20;;;17.10;99.90;;;;;;4994452;28;20033;-79
2023/07/12 03:29:08;;;;;;;0.93;0.20;;;17.10;99.90;;;;;;5024873;28;20030;-79
2023/07/12 03:31:33;;;;;;;1.35;0.20;;;17.10;99.90;;;;;;5020877;28;20030;-80
2023/07/12 03:34:00;;;;;;;1.27;0.20;;;17.10;99.90;;;;;;5018921;28;20494;-81
2023/07/12 03:36:29;;;;;;;2.15;0.30;;;16.90;99.90;;;;;;5006643;28;20029;-80
2023/07/12 03:38:55;;;;;;;1.63;0.30;;;17.00;99.90;;;;;;5024265;28;20026;-81
2023/07/12 03:41:21;;;;;;;0.93;0.30;;;16.90;99.90;;;;;;5019818;28;20018;-80
2023/07/12 03:43:48;;;;;;;1.10;0.30;;;17.00;99.90;;;;;;5033030;28;20030;-80
2023/07/12 03:46:14;;;;;;;2.55;0.40;;;17.00;99.90;;;;;;5018620;28;20120;-79
2023/07/12 03:48:40;;;;;;;1.00;0.30;;;16.90;99.90;;;;;;5022520;28;20502;-81
2023/07/12 03:51:06;;;;;;;4.20;0.40;;;16.90;99.90;;;;;;5024763;28;20072;-80
2023/07/12 03:53:32;;;;;;;1.25;0.20;;;16.90;99.90;;;;;;5020057;28;20349;-81
2023/07/12 03:56:00;;;;;;;1.23;0.25;;;17.00;99.90;;;;;;5000126;28;20136;-80
2023/07/12 03:58:29;;;;;;;1.42;0.40;;;17.00;99.90;;;;;;5009546;28;20030;-78
2023/07/12 04:00:55;;;;;;;2.03;0.20;;;16.90;99.90;;;;;;5006278;28;20040;-81
2023/07/12 04:03:21;;;;;;;1.35;0.30;;;17.00;99.90;;;;;;5011015;28;20042;-81
2023/07/12 04:05:51;;;;;;;3.70;0.30;;;16.90;99.90;;;;;;5018169;28;20490;-81
2023/07/12 04:08:17;;;;;;;;;;;17.00;99.90;;;;;;5005527;28;20030;-80
2023/07/12 04:10:43;;;;;;;2.03;0.40;;;16.90;99.90;;;;;;5021213;28;19909;-81
2023/07/12 04:13:08;;;;;;;4.18;0.63;;;16.80;99.90;;;;;;5023409;28;20017;-80
2023/07/12 04:15:38;;;;;;;2.30;0.50;;;16.80;99.90;;;;;;5025728;28;20475;-79
2023/07/12 04:18:04;;;;;;;4.63;1.00;;;16.70;99.90;;;;;;5027370;28;20052;-78
2023/07/12 04:20:30;;;;;;;3.53;0.90;;;16.60;99.90;;;;;;5016880;28;20486;-79
2023/07/12 04:22:56;;;;;;;3.08;0.80;;;16.60;99.90;;;;;;5015327;28;20029;-79
2023/07/12 04:25:22;;;;;;;3.53;0.73;;;16.60;99.90;;;;;;5016900;28;20613;-80
2023/07/12 04:27:47;;;;;;;5.68;1.48;;;16.60;99.90;;;;;;5002471;28;20025;-80
2023/07/12 04:30:15;;;;;;;2.92;0.90;;;16.50;99.90;;;;;;5009849;28;20116;-80
2023/07/12 04:32:41;;;;;;;2.65;1.10;;;16.60;99.90;;;;;;5006643;28;20078;-81
2023/07/12 04:35:07;;;;;;;3.97;1.23;;;16.60;99.90;;;;;;5024254;28;20036;-80
2023/07/12 04:37:34;;;;;;;2.90;1.20;;;16.60;99.90;;;;;;5022684;28;20033;-81
2023/07/12 04:40:00;;;;;;;5.25;1.70;;;16.60;99.90;;;;;;5005888;28;20037;-79
2023/07/12 04:42:26;;;;;;;5.93;3.05;;;16.60;99.90;;;;;;5005972;28;20037;-81
2023/07/12 04:44:52;;;;;;;8.05;3.78;;;16.50;99.90;;;;;;5005337;28;20032;-81
2023/07/12 04:47:18;;;;;;;5.63;3.33;;;16.50;99.90;;;;;;5008544;28;20033;-85
2023/07/12 04:49:44;;;;;;;5.13;3.03;;;16.50;99.90;;;;;;5003383;28;20025;-80
2023/07/12 04:52:14;;;;;;;4.80;2.75;;;16.60;99.90;;;;;;5022237;28;20441;-80
2023/07/12 04:54:41;;;;;;;9.23;3.42;;;16.60;99.90;;;;;;5036959;28;20217;-81
2023/07/12 04:57:07;;;;;;;10.98;5.30;;;16.60;99.90;;;;;;5011333;28;20060;-81
2023/07/12 04:59:35;;;;;;;7.07;4.40;;;16.50;99.90;;;;;;5021267;28;20026;-81
2023/07/12 05:02:04;;;;;;;11.80;6.38;;;16.60;99.90;;;;;;5024112;28;20092;-80
2023/07/12 05:04:31;;;;;;;7.23;6.30;;;16.50;99.90;;;;;;5025670;28;20041;-80
2023/07/12 05:06:57;;;;;;;7.70;5.28;;;16.60;99.90;;;;;;5021311;28;20030;-81
2023/07/12 05:09:25;;;;;;;7.28;4.80;;;16.70;99.90;;;;;;5018848;28;20030;-81
2023/07/12 05:11:52;;;;;;;7.35;5.50;;;16.70;99.90;;;;;;5007116;28;20083;-81
2023/07/12 05:14:20;;;;;;;7.97;6.70;;;16.70;99.90;;;;;;4994849;28;20045;-81
2023/07/12 05:16:46;;;;;;;11.05;8.70;;;16.70;99.90;;;;;;5004763;28;20044;-80
2023/07/12 05:19:12;;;;;;;7.95;6.43;;;16.70;99.90;;;;;;4995568;28;20124;-80
2023/07/12 05:21:38;;;;;;;9.05;6.82;;;16.70;99.90;;;;;;4996084;28;20038;-80
2023/07/12 05:24:04;;;;;;;10.65;8.80;;;16.70;99.90;;;;;;4997838;28;20583;-79
2023/07/12 05:26:29;;;;;;;14.43;8.88;;;16.70;99.90;;;;;;5014966;28;21242;-81
2023/07/12 05:28:55;;;;;;;10.82;7.22;;;16.70;99.90;;;;;;5011022;28;20040;-81
2023/07/12 05:31:21;;;;;;;12.18;8.27;;;16.80;99.90;;;;;;4997241;28;20275;-78
2023/07/12 05:33:47;;;;;;;10.63;9.40;;;16.70;99.90;;;;;;5013715;28;20172;-80
2023/07/12 05:36:14;;;;;;;13.10;9.43;;;16.60;99.90;;;;;;4994958;28;20025;-79
2023/07/12 05:38:39;;;;;;;10.88;9.77;;;16.60;99.90;;;;;;5008998;28;20440;-80
2023/07/12 05:41:13;;;;;;;8.27;7.25;;;16.60;99.90;;;;;;4995240;28;20033;-80
2023/07/12 05:43:40;;;;;;;11.27;8.05;;;16.60;99.90;;;;;;5012667;28;20121;-79
2023/07/12 05:46:06;;;;;;;9.63;7.30;;;16.80;99.90;;;;;;5010357;28;20061;-81
2023/07/12 05:48:32;;;;;;;12.05;8.20;;;17.10;99.90;;;;;;5013122;28;20128;-80
2023/07/12 05:50:59;;;;;;;9.63;8.25;;;17.00;99.90;;;;;;5009116;28;20079;-81
2023/07/12 05:53:25;;;;;;;10.77;7.80;;;16.90;99.90;;;;;;5013735;28;20061;-80
2023/07/12 05:55:55;;;;;;;10.60;6.85;;;16.80;99.90;;;;;;5014124;28;20040;-79
2023/07/12 05:58:21;;;;;;;;;;;17.00;99.90;;;;;;5014443;28;20049;-78
2023/07/12 06:00:47;;;;;;;10.48;5.30;;;17.00;99.90;;;;;;5012035;28;19917;-80
2023/07/12 06:03:12;;;;;;;12.07;5.18;;;17.20;99.90;;;;;;5014281;28;20057;-81
2023/07/12 06:05:44;;;;;;;11.48;4.57;;;17.30;99.90;;;;;;5014864;28;20513;-80
2023/07/12 06:08:10;;;;;;;6.78;3.90;;;17.20;99.90;;;;;;5012691;28;20063;-79
2023/07/12 06:10:36;;;;;;;8.18;3.90;;;17.30;99.90;;;;;;5009760;28;20083;-80
2023/07/12 06:13:02;;;;;;;6.22;3.95;;;17.50;99.90;;;;;;5013228;28;20057;-79
2023/07/12 06:15:27;;;;;;;11.00;3.58;;;17.60;99.90;;;;;;5013071;28;20040;-79
2023/07/12 06:17:53;;;;;;;8.23;3.35;;;17.40;99.90;;;;;;5012993;28;20041;-79
2023/07/12 06:20:19;;;;;;;5.50;3.00;;;17.20;99.90;;;;;;5012276;28;20034;-80
2023/07/12 06:22:45;;;;;;;7.28;2.67;;;17.30;99.90;;;;;;5011888;28;20241;-79
2023/07/12 06:25:10;;;;;;;10.00;3.70;;;17.30;99.90;;;;;;5012856;28;20496;-80
2023/07/12 06:27:37;;;;;;;6.95;2.88;;;17.30;99.90;;;;;;4996317;28;20132;-80
2023/07/12 06:30:03;;;;;;;8.15;3.13;;;17.30;99.90;;;;;;4995428;28;20037;-80
2023/07/12 06:32:29;;;;;;;7.70;3.33;;;17.30;99.90;;;;;;4994542;28;20437;-80
2023/07/12 06:34:54;;;;;;;6.90;2.13;;;17.20;99.90;;;;;;4996220;28;20047;-78
2023/07/12 06:37:20;;;;;;;5.13;2.53;;;17.30;99.90;;;;;;5012339;28;20490;-79
2023/07/12 06:39:46;;;;;;;6.53;2.05;;;17.20;99.90;;;;;;4995267;28;20041;-78
2023/07/12 06:42:12;;;;;;;5.90;3.15;;;17.20;99.90;;;;;;5013158;28;20034;-78
2023/07/12 06:44:38;;;;;;;8.95;2.83;;;17.20;99.90;;;;;;5012928;28;20030;-79
2023/07/12 06:47:04;;;;;;;5.63;1.38;;;17.40;99.90;;;;;;5012923;28;20562;-80
2023/07/12 06:49:29;;;;;;;6.18;1.77;;;17.60;99.90;;;;;;5011865;28;20033;-78
2023/07/12 06:51:57;;;;;;;3.75;1.33;;;17.80;99.90;;;;;;5011571;28;20706;-79
2023/07/12 06:54:23;;;;;;;5.00;1.38;;;18.10;99.90;;;;;;5009625;28;20058;-77
2023/07/12 06:56:49;;;;;;;7.32;2.10;;;18.10;99.90;;;;;;5007585;28;20060;-77
2023/07/12 06:59:15;;;;;;;3.88;1.30;;;18.30;99.90;;;;;;5005044;28;20033;-77
2023/07/12 07:01:41;;;;;;;6.35;1.38;;;18.20;99.90;;;;;;5007067;28;20045;-78
2023/07/12 07:04:06;;;;;;;4.95;1.70;;;18.20;99.90;;;;;;5008451;28;20057;-78
2023/07/12 07:06:32;;;;;;;4.00;1.50;;;18.00;99.90;;;;;;4991942;28;20029;-79
2023/07/12 07:08:58;;;;;;;5.50;2.05;;;18.00;99.90;;;;;;5010635;28;20628;-77
2023/07/12 07:11:24;;;;;;;5.85;1.40;;;18.10;99.90;;;;;;4994907;28;20041;-78
2023/07/12 07:13:50;;;;;;;5.88;2.08;;;18.10;99.90;;;;;;5003331;28;20049;-78
2023/07/12 07:16:17;;;;;;;4.13;2.50;;;18.00;99.90;;;;;;5010884;28;20582;-77
2023/07/12 07:18:43;;;;;;;6.10;2.80;;;17.90;99.90;;;;;;5011873;28;20324;-77
2023/07/12 07:21:11;;;;;;;4.85;2.20;;;17.70;99.90;;;;;;5010130;28;20363;-79
2023/07/12 07:23:37;;;;;;;7.07;2.60;;;17.80;99.90;;;;;;4995651;28;20494;-80
2023/07/12 07:26:05;;;;;;;7.63;2.38;;;17.60;99.90;;;;;;5011979;28;20199;-77
2023/07/12 07:28:31;;;;;;;7.15;2.40;;;17.70;99.90;;;;;;4990265;28;20072;-78
2023/07/12 07:31:00;;;;;;;4.50;2.95;;;17.70;99.90;;;;;;5017118;28;20160;-78
2023/07/12 07:33:28;;;;;;;4.20;1.70;;;17.80;99.90;;;;;;4999052;28;20045;-78
2023/07/12 07:35:55;;;;;;;3.33;1.58;;;17.90;99.90;;;;;;5010491;28;20033;-79
2023/07/12 07:38:27;;;;;;;4.07;1.88;;;18.20;99.90;;;;;;5011126;28;20041;-79
2023/07/12 07:40:55;;;;;;;6.88;1.63;;;18.30;99.90;;;;;;5011614;28;20223;-77
2023/07/12 07:43:21;;;;;;;7.03;1.80;;;18.20;99.90;;;;;;5011610;28;20494;-78
2023/07/12 07:45:47;;;;;;;4.40;1.23;;;18.60;99.90;;;;;;5005389;28;20057;-77
2023/07/12 07:48:12;;;;;;;4.93;1.20;;;18.90;99.90;;;;;;5001228;28;20380;-77
2023/07/12 07:50:39;;;;;;;4.47;1.23;;;19.30;99.90;;;;;;5009811;28;21178;-78
2023/07/12 07:53:05;;;;;;;4.97;1.50;;;19.30;99.90;;;;;;5012073;28;20524;-78
2023/07/12 07:55:31;;;;;;;3.03;1.10;;;19.30;99.90;;;;;;5012148;28;20037;-78
2023/07/12 07:57:58;;;;;;;4.13;1.48;;;19.80;99.90;;;;;;5012201;28;20029;-78
2023/07/12 08:00:24;;;;;;;4.47;1.35;;;19.60;99.90;;;;;;5009636;28;20088;-78
2023/07/12 08:02:50;;;;;;;6.30;1.15;;;19.40;99.90;;;;;;5010157;28;20073;-78
2023/07/12 08:05:16;;;;;;;6.20;1.13;;;19.60;99.90;;;;;;5011285;28;20041;-78
2023/07/12 08:07:46;;;;;;;3.65;1.00;;;19.90;99.90;;;;;;5009648;28;20033;-78
2023/07/12 08:10:13;;;;;;;;;;;19.80;99.90;;;;;;4993116;28;20099;-78
2023/07/12 08:12:39;;;;;;;3.78;0.88;;;20.20;99.90;;;;;;5010155;28;19924;-78
2023/07/12 08:15:06;;;;;;;3.80;0.90;;;20.40;99.90;;;;;;5010763;28;20136;-78
2023/07/12 08:17:32;;;;;;;3.83;1.10;;;20.10;99.90;;;;;;5008580;28;20115;-78
2023/07/12 08:19:57;;;;;;;1.98;0.70;;;20.20;99.90;;;;;;4999277;28;20128;-78
2023/07/12 08:22:24;;;;;;;5.65;1.63;;;20.20;99.90;;;;;;5009636;28;20486;-80
2023/07/12 08:24:50;;;;;;;4.20;1.25;;;19.80;99.90;;;;;;5010574;28;20030;-80
2023/07/12 08:27:18;;;;;;;3.63;1.20;;;19.60;99.90;;;;;;4986695;28;20856;-78
2023/07/12 08:29:44;;;;;;;5.35;1.20;;;19.20;99.90;;;;;;5009543;28;20029;-81
2023/07/12 08:32:10;;;;;;;3.45;1.00;;;19.30;99.90;;;;;;4992837;28;20033;-78
2023/07/12 08:34:37;;;;;;;6.20;1.17;;;19.50;99.90;;;;;;5011424;28;20046;-79
2023/07/12 08:37:03;;;;;;;4.68;0.85;;;19.50;99.90;;;;;;5009952;28;20052;-80
2023/07/12 08:39:28;;;;;;;5.38;1.75;;;19.90;99.90;;;;;;5009844;28;20033;-81
2023/07/12 08:41:54;;;;;;;5.60;1.00;;;19.40;99.90;;;;;;4993284;28;20131;-80
2023/07/12 08:44:22;;;;;;;3.72;1.13;;;19.60;99.90;;;;;;4993663;28;20131;-80
2023/07/12 08:46:55;;;;;;;6.32;1.30;;;19.60;99.90;;;;;;5010061;28;20349;-79
2023/07/12 08:49:23;;;;;;;8.20;1.83;;;19.30;99.90;;;;;;4999682;28;20056;-79
2023/07/12 08:51:49;;;;;;;6.05;1.75;;;19.20;99.90;;;;;;5009860;28;20041;-80
2023/07/12 08:54:22;;;;;;;7.03;1.55;;;19.30;99.90;;;;;;4993844;28;20281;-80
2023/07/12 08:56:49;;;;;;;6.90;1.95;;;19.40;99.90;;;;;;4994526;28;20734;-80
2023/07/12 08:59:16;;;;;;;5.22;2.03;;;19.30;99.90;;;;;;4999288;28;20037;-79
2023/07/12 09:01:53;;;;;;;6.07;1.95;;;19.90;99.90;;;;;;5009837;28;20136;-80
2023/07/12 09:04:31;;;;;;;6.28;1.90;;;20.30;99.90;;;;;;4994481;28;20052;-81
2023/07/12 09:07:00;;;;;;;3.28;1.42;;;20.90;99.90;;;;;;5009784;28;20487;-78
2023/07/12 09:09:27;;;;;;;6.65;1.13;;;21.40;99.90;;;;;;4992733;28;20468;-78
2023/07/12 09:11:54;;;;;;;6.15;2.05;;;21.20;99.90;;;;;;5013583;28;20026;-79
2023/07/12 09:14:24;;;;;;;4.13;1.38;;;20.20;99.90;;;;;;4993631;28;20588;-81
2023/07/12 09:16:59;;;;;;;5.05;1.33;;;20.20;99.90;;;;;;5010883;28;20309;-78
2023/07/12 09:19:30;;;;;;;4.25;1.48;;;20.30;99.90;;;;;;5007060;28;20037;-80
2023/07/12 09:21:59;;;;;;;4.97;1.50;;;20.70;99.90;;;;;;5009377;28;20052;-78
2023/07/12 09:24:28;;;;;;;7.63;1.60;;;21.00;99.90;;;;;;4992479;28;20079;-80
2023/07/12 09:27:16;;;;;;;8.10;2.05;;;20.80;99.90;;;;;;4993103;28;20621;-80
2023/07/12 09:29:59;;;;;;;4.65;0.80;;;20.90;99.90;;;;;;5006383;28;20029;-80
2023/07/12 09:32:36;;;;;;;10.82;1.77;;;21.60;99.90;;;;;;4992332;28;20059;-79
2023/07/12 09:35:28;;;;;;;5.40;1.10;;;20.90;99.90;;;;;;5010757;28;20385;-80
2023/07/12 09:37:59;;;;;;;9.63;1.63;;;20.80;99.90;;;;;;5008996;28;20437;-79
2023/07/12 09:40:29;;;;;;;5.07;0.80;;;21.20;99.90;;;;;;5009308;28;20040;-79
2023/07/12 09:42:58;;;;;;;4.05;0.93;;;21.80;99.90;;;;;;5008745;28;20030;-80
2023/07/12 09:45:27;;;;;;;4.93;0.67;;;21.00;99.90;;;;;;4993215;28;20043;-81
2023/07/12 09:48:09;;;;;;;2.40;0.50;;;21.00;99.90;;;;;;5025256;28;20026;-80
2023/07/12 09:50:48;;;;;;;4.85;0.60;;;21.30;99.90;;;;;;5009795;28;20113;-80
2023/07/12 09:53:27;;;;;;;2.85;0.70;;;21.70;99.90;;;;;;5009599;28;20037;-80
2023/07/12 09:56:15;;;;;;;2.92;0.57;;;21.00;99.90;;;;;;4992540;28;20033;-80
2023/07/12 09:59:07;;;;;;;3.83;0.50;;;21.60;99.90;;;;;;4991628;28;20037;-80
2023/07/12 10:01:53;;;;;;;6.38;0.68;;;21.70;99.90;;;;;;4989943;28;20045;-80
2023/07/12 10:04:38;;;;;;;3.58;0.82;;;21.30;99.90;;;;;;4992332;28;20258;-80
2023/07/12 10:07:14;;;;;;;4.57;0.60;;;21.80;99.90;;;;;;4988745;28;20140;-80
2023/07/12 10:09:44;;;;;;;3.47;0.60;;;22.70;99.90;;;;;;5009499;28;20084;-79
2023/07/12 10:12:23;;;;;;;8.50;1.02;;;23.30;99.90;;;;;;5024429;28;20045;-79
2023/07/12 10:14:51;;;;;;;3.65;0.60;;;22.60;99.90;;;;;;4989863;28;20144;-79
2023/07/12 10:17:39;;;;;;;2.95;0.80;;;22.90;99.90;;;;;;5007056;28;20482;-80
2023/07/12 10:20:06;;;;;;;2.45;0.50;;;23.00;99.90;;;;;;5007859;28;20037;-80
2023/07/12 10:22:40;;;;;;;2.85;0.60;;;23.50;99.90;;;;;;5009209;28;20032;-81
2023/07/12 10:25:18;;;;;;;5.60;0.50;;;22.50;99.90;;;;;;4999621;28;20438;-79
2023/07/12 10:27:50;;;;;;;4.90;0.50;;;22.30;99.90;;;;;;5006721;28;20095;-81
2023/07/12 10:30:23;;;;;;;3.35;0.57;;;22.60;99.90;;;;;;4988099;28;20370;-82
2023/07/12 10:33:15;;;;;;;1.88;0.40;;;22.50;99.90;;;;;;5008714;28;20543;-80
2023/07/12 10:35:55;;;;;;;2.78;0.60;;;22.90;99.90;;;;;;5010949;28;20045;-81
2023/07/12 10:38:21;;;;;;;2.78;0.60;;;23.30;99.90;;;;;;5008635;28;20452;-81
2023/07/12 10:40:56;;;;;;;2.17;0.50;;;23.20;99.90;;;;;;4992382;28;20235;-80
2023/07/12 10:43:45;;;;;;;3.00;0.40;;;23.90;99.90;;;;;;5012100;28;20025;-81
2023/07/12 10:46:32;;;;;;;2.90;0.50;;;23.60;99.90;;;;;;5010998;28;20466;-79
2023/07/12 10:49:02;;;;;;;2.75;0.55;;;23.30;99.90;;;;;;4996143;28;20033;-81
2023/07/12 10:51:40;;;;;;;4.38;0.63;;;23.90;99.90;;;;;;4995465;28;20038;-80
2023/07/12 10:54:32;;;;;;;6.78;0.70;;;23.20;99.90;;;;;;5004472;28;20051;-82
2023/07/12 10:57:19;;;;;;;5.18;0.90;;;23.40;99.90;;;;;;5020336;28;20091;-81
2023/07/12 10:59:46;;;;;;;4.95;0.70;;;22.40;99.90;;;;;;5013277;28;20127;-81
2023/07/12 11:02:45;;;;;;;6.20;0.65;;;22.50;99.90;;;;;;5026852;28;20053;-81
2023/07/12 11:05:35;;;;;;;3.25;0.50;;;22.10;99.90;;;;;;5012878;28;20026;-81
2023/07/12 11:08:03;;;;;;;2.83;0.40;;;23.20;99.90;;;;;;5011540;28;21406;-82
2023/07/12 11:10:35;;;;;;;2.75;0.40;;;23.30;99.90;;;;;;5011236;28;20033;-83
2023/07/12 11:13:14;;;;;;;2.78;0.52;;;22.30;99.90;;;;;;4985454;28;20072;-82
2023/07/12 11:15:57;;;;;;;2.17;0.40;;;21.70;99.90;;;;;;4995580;28;20465;-82
2023/07/12 11:18:38;;;;;;;3.47;0.60;;;21.80;99.90;;;;;;5010488;28;20057;-83
2023/07/12 11:21:06;;;;;;;2.38;0.50;;;21.80;99.90;;;;;;4996008;28;20096;-82
2023/07/12 11:23:35;;;;;;;5.83;0.67;;;21.40;99.90;;;;;;5012563;28;20033;-82
2023/07/12 11:26:29;;;;;;;6.70;0.60;;;21.50;99.90;;;;;;4995801;28;20140;-82
2023/07/12 11:29:17;;;;;;;4.35;0.68;;;21.30;99.90;;;;;;5011950;28;20041;-82
2023/07/12 11:31:48;;;;;;;6.22;0.90;;;21.20;99.90;;;;;;5021178;28;20033;-83
2023/07/12 11:34:23;;;;;;;3.95;0.60;;;20.90;99.90;;;;;;5003006;28;20340;-81
2023/07/12 11:36:55;;;;;;;5.60;0.70;;;21.50;99.90;;;;;;5011104;28;20029;-82
2023/07/12 11:39:23;;;;;;;5.63;0.85;;;21.30;99.90;;;;;;5012597;28;20034;-83
2023/07/12 11:41:57;;;;;;;9.40;2.05;;;20.90;99.90;;;;;;5011648;28;20048;-82
2023/07/12 11:44:25;;;;;;;6.88;1.02;;;20.60;99.90;;;;;;5011838;28;20083;-81
2023/07/12 11:46:51;;;;;;;5.75;1.20;;;20.50;99.90;;;;;;5010894;28;20245;-82
2023/07/12 11:49:26;;;;;;;8.35;1.67;;;20.40;99.90;;;;;;4994753;28;20042;-83
2023/07/12 11:51:57;;;;;;;5.70;0.70;;;20.40;99.90;;;;;;5003743;28;20064;-83
2023/07/12 11:54:34;;;;;;;3.10;0.80;;;20.50;99.90;;;;;;5012161;28;20045;-83
2023/07/12 11:57:02;;;;;;;4.00;0.90;;;21.20;99.90;;;;;;5013352;28;20465;-83
2023/07/12 11:59:32;;;;;;;3.08;0.80;;;21.90;99.90;;;;;;5012908;28;20070;-83
2023/07/12 12:01:59;;;;;;;5.07;0.80;;;21.80;99.90;;;;;;5012653;28;20053;-83
2023/07/12 12:04:28;;;;;;;5.90;0.70;;;21.40;99.90;;;;;;4996513;28;20103;-82
2023/07/12 12:07:24;;;;;;;5.22;1.00;;;21.40;99.90;;;;;;5025857;28;20379;-82
2023/07/12 12:09:51;;;;;;;5.53;1.00;;;21.20;99.90;;;;;;5011523;28;20039;-81
2023/07/12 12:12:20;;;;;;;5.95;1.45;;;21.10;99.90;;;;;;5001501;28;20529;-81
2023/07/12 12:14:49;;;;;;;5.28;1.10;;;21.10;99.90;;;;;;5012889;28;20037;-82
2023/07/12 12:17:24;;;;;;;5.72;1.02;;;21.00;99.90;;;;;;5019557;28;21704;-82
2023/07/12 12:20:02;;;;;;;6.70;1.40;;;21.00;99.90;;;;;;4986599;28;20559;-82
2023/07/12 12:22:28;;;;;;;6.07;1.00;;;21.30;99.90;;;;;;5011348;28;20044;-81
2023/07/12 12:24:56;;;;;;;6.40;0.80;;;22.00;99.90;;;;;;5011459;28;20033;-83
2023/07/12 12:27:37;;;;;;;4.63;1.25;;;22.50;99.90;;;;;;4994645;28;20037;-82
2023/07/12 12:30:15;;;;;;;6.00;1.05;;;22.20;99.90;;;;;;5010913;28;20132;-82
2023/07/12 12:32:55;;;;;;;4.00;1.00;;;22.20;99.90;;;;;;5011055;28;20453;-82
2023/07/12 12:35:21;;;;;;;5.15;0.90;;;21.80;99.90;;;;;;5010339;28;20038;-81
2023/07/12 12:38:01;;;;;;;6.40;1.08;;;21.70;99.90;;;;;;4992186;28;20037;-80
2023/07/12 12:40:27;;;;;;;6.47;1.35;;;21.50;99.90;;;;;;5001036;28;20065;-82
2023/07/12 12:42:53;;;;;;;4.40;0.70;;;21.50;99.90;;;;;;4992946;28;20116;-82
2023/07/12 12:45:19;;;;;;;3.20;0.60;;;21.90;99.90;;;;;;5008792;28;20069;-83
2023/07/12 12:47:45;;;;;;;2.03;0.50;;;22.40;99.90;;;;;;5010721;28;20399;-82
2023/07/12 12:50:23;;;;;;;7.72;0.82;;;23.50;99.90;;;;;;4994026;28;20041;-81
2023/07/12 12:52:49;;;;;;;7.60;0.60;;;22.60;99.90;;;;;;4992276;28;20037;-82
2023/07/12 12:55:15;;;;;;;5.03;0.60;;;22.70;99.90;;;;;;5008227;28;20387;-82
2023/07/12 12:57:41;;;;;;;3.40;0.60;;;22.80;99.90;;;;;;5001741;28;20029;-81
2023/07/12 13:00:17;;;;;;;4.07;0.60;;;22.90;99.90;;;;;;5010416;28;20097;-82